sensor_id;sensor_type;location;lat;lon;timestamp;temperature;humidity
21216;DHT22;10765;50.954;5.322;2023-07-31T00:00:52;16.70;99.90
21216;DHT22;10765;50.954;5.322;2023-07-31T00:03:18;16.70;99.90
21216;DHT22;10765;50.954;5.322;2023-07-31T00:05:47;16.70;99.90
21216;DHT22;10765;50.954;5.322;2023-07-31T00:08:14;16.60;99.90
21216;DHT22;10765;50.954;5.322;2023-07-31T00:10:40;16.60;99.90
21216;DHT22;10765;50.954;5.322;2023-07-31T00:13:07;16.50;99.90
21216;DHT22;10765;50.954;5.322;2023-07-31T00:15:34;16.50;99.90
21216;DHT22;10765;50.954;5.322;2023-07-31T00:18:01;16.50;99.90
21216;DHT22;10765;50.954;5.322;2023-07-31T00:20:28;16.50;99.90
21216;DHT22;10765;50.954;5.322;2023-07-31T00:22:56;16.60;99.90
21216;DHT22;10765;50.954;5.322;2023-07-31T00:25:23;16.60;99.90
21216;DHT22;10765;50.954;5.322;2023-07-31T00:27:50;16.60;99.90
21216;DHT22;10765;50.954;5.322;2023-07-31T00:30:17;16.60;99.90
21216;DHT22;10765;50.954;5.322;2023-07-31T00:32:44;16.50;99.90
21216;DHT22;10765;50.954;5.322;2023-07-31T00:35:11;16.60;99.90
21216;DHT22;10765;50.954;5.322;2023-07-31T00:37:37;16.50;99.90
21216;DHT22;10765;50.954;5.322;2023-07-31T00:40:07;16.50;99.90
21216;DHT22;10765;50.954;5.322;2023-07-31T00:42:34;16.50;99.90
21216;DHT22;10765;50.954;5.322;2023-07-31T00:45:01;16.50;99.90
21216;DHT22;10765;50.954;5.322;2023-07-31T00:47:28;16.50;99.90
21216;DHT22;10765;50.954;5.322;2023-07-31T00:49:55;16.60;99.90
21216;DHT22;10765;50.954;5.322;2023-07-31T00:52:22;16.70;99.90
21216;DHT22;10765;50.954;5.322;2023-07-31T00:54:49;16.70;99.90
21216;DHT22;10765;50.954;5.322;2023-07-31T00:57:18;16.80;99.90
21216;DHT22;10765;50.954;5.322;2023-07-31T00:59:45;16.80;99.90
21216;DHT22;10765;50.954;5.322;2023-07-31T01:02:12;16.90;99.90
21216;DHT22;10765;50.954;5.322;2023-07-31T01:04:39;16.90;99.90
21216;DHT22;10765;50.954;5.322;2023-07-31T01:07:13;16.90;99.90
21216;DHT22;10765;50.954;5.322;2023-07-31T01:09:44;16.90;99.90
21216;DHT22;10765;50.954;5.322;2023-07-31T01:12:14;16.90;99.90
21216;DHT22;10765;50.954;5.322;2023-07-31T01:14:52;16.90;99.90
21216;DHT22;10765;50.954;5.322;2023-07-31T01:17:28;17.00;99.90
21216;DHT22;10765;50.954;5.322;2023-07-31T01:19:56;17.00;99.90
21216;DHT22;10765;50.954;5.322;2023-07-31T01:22:42;17.00;99.90
21216;DHT22;10765;50.954;5.322;2023-07-31T01:25:24;17.10;99.90
21216;DHT22;10765;50.954;5.322;2023-07-31T01:27:59;17.10;99.90
21216;DHT22;10765;50.954;5.322;2023-07-31T01:30:31;17.10;99.90
21216;DHT22;10765;50.954;5.322;2023-07-31T01:32:59;17.20;99.90
21216;DHT22;10765;50.954;5.322;2023-07-31T01:35:35;17.10;99.90
21216;DHT22;10765;50.954;5.322;2023-07-31T01:38:02;17.10;99.90
21216;DHT22;10765;50.954;5.322;2023-07-31T01:40:29;17.20;99.90
21216;DHT22;10765;50.954;5.322;2023-07-31T01:42:57;17.20;99.90
21216;DHT22;10765;50.954;5.322;2023-07-31T01:45:24;17.20;99.90
21216;DHT22;10765;50.954;5.322;2023-07-31T01:47:51;17.20;99.90
21216;DHT22;10765;50.954;5.322;2023-07-31T01:50:18;17.20;99.90
21216;DHT22;10765;50.954;5.322;2023-07-31T01:52:45;17.20;99.90
21216;DHT22;10765;50.954;5.322;2023-07-31T01:55:12;17.30;99.90
21216;DHT22;10765;50.954;5.322;2023-07-31T01:57:39;17.30;99.90
21216;DHT22;10765;50.954;5.322;2023-07-31T02:00:08;17.30;99.90
21216;DHT22;10765;50.954;5.322;2023-07-31T02:02:35;17.20;99.90
21216;DHT22;10765;50.954;5.322;2023-07-31T02:05:01;17.30;99.90
21216;DHT22;10765;50.954;5.322;2023-07-31T02:07:28;17.30;99.90
21216;DHT22;10765;50.954;5.322;2023-07-31T02:09:55;17.30;99.90
21216;DHT22;10765;50.954;5.322;2023-07-31T02:12:22;17.30;99.90
21216;DHT22;10765;50.954;5.322;2023-07-31T02:14:49;17.30;99.90
21216;DHT22;10765;50.954;5.322;2023-07-31T02:17:17;17.20;99.90
21216;DHT22;10765;50.954;5.322;2023-07-31T02:19:44;17.30;99.90
21216;DHT22;10765;50.954;5.322;2023-07-31T02:22:11;17.30;99.90
21216;DHT22;10765;50.954;5.322;2023-07-31T02:24:38;17.40;99.90
21216;DHT22;10765;50.954;5.322;2023-07-31T02:27:05;17.40;99.90
21216;DHT22;10765;50.954;5.322;2023-07-31T02:29:32;17.40;99.90
21216;DHT22;10765;50.954;5.322;2023-07-31T02:31:59;17.30;99.90
21216;DHT22;10765;50.954;5.322;2023-07-31T02:34:27;17.30;99.90
21216;DHT22;10765;50.954;5.322;2023-07-31T02:36:54;17.30;99.90
21216;DHT22;10765;50.954;5.322;2023-07-31T02:39:21;17.30;99.90
21216;DHT22;10765;50.954;5.322;2023-07-31T02:41:48;17.30;99.90
21216;DHT22;10765;50.954;5.322;2023-07-31T02:44:15;17.30;99.90
21216;DHT22;10765;50.954;5.322;2023-07-31T02:46:42;17.30;99.90
21216;DHT22;10765;50.954;5.322;2023-07-31T02:49:08;17.20;99.90
21216;DHT22;10765;50.954;5.322;2023-07-31T02:51:37;17.30;99.90
21216;DHT22;10765;50.954;5.322;2023-07-31T02:54:04;17.30;99.90
21216;DHT22;10765;50.954;5.322;2023-07-31T02:56:30;17.30;99.90
21216;DHT22;10765;50.954;5.322;2023-07-31T02:58:57;17.30;99.90
21216;DHT22;10765;50.954;5.322;2023-07-31T03:01:24;17.30;99.90
21216;DHT22;10765;50.954;5.322;2023-07-31T03:03:51;17.30;99.90
21216;DHT22;10765;50.954;5.322;2023-07-31T03:06:18;17.40;99.90
21216;DHT22;10765;50.954;5.322;2023-07-31T03:08:47;17.40;99.90
21216;DHT22;10765;50.954;5.322;2023-07-31T03:11:13;17.40;99.90
21216;DHT22;10765;50.954;5.322;2023-07-31T03:13:40;17.40;99.90
21216;DHT22;10765;50.954;5.322;2023-07-31T03:16:07;17.40;99.90
21216;DHT22;10765;50.954;5.322;2023-07-31T03:18:34;17.40;99.90
21216;DHT22;10765;50.954;5.322;2023-07-31T03:21:01;17.40;99.90
21216;DHT22;10765;50.954;5.322;2023-07-31T03:23:28;17.40;99.90
21216;DHT22;10765;50.954;5.322;2023-07-31T03:25:57;17.40;99.90
21216;DHT22;10765;50.954;5.322;2023-07-31T03:28:24;17.40;99.90
21216;DHT22;10765;50.954;5.322;2023-07-31T03:30:51;17.30;99.90
21216;DHT22;10765;50.954;5.322;2023-07-31T03:33:18;17.30;99.90
21216;DHT22;10765;50.954;5.322;2023-07-31T03:35:45;17.30;99.90
21216;DHT22;10765;50.954;5.322;2023-07-31T03:38:12;17.30;99.90
21216;DHT22;10765;50.954;5.322;2023-07-31T03:40:39;17.30;99.90
21216;DHT22;10765;50.954;5.322;2023-07-31T03:43:07;17.30;99.90
21216;DHT22;10765;50.954;5.322;2023-07-31T03:45:34;17.30;99.90
21216;DHT22;10765;50.954;5.322;2023-07-31T03:48:01;17.30;99.90
21216;DHT22;10765;50.954;5.322;2023-07-31T03:50:28;17.30;99.90
21216;DHT22;10765;50.954;5.322;2023-07-31T03:52:55;17.40;99.90
21216;DHT22;10765;50.954;5.322;2023-07-31T03:55:22;17.40;99.90
21216;DHT22;10765;50.954;5.322;2023-07-31T03:57:49;17.40;99.90
21216;DHT22;10765;50.954;5.322;2023-07-31T04:00:17;17.50;99.90
21216;DHT22;10765;50.954;5.322;2023-07-31T04:02:46;17.50;99.90
21216;DHT22;10765;50.954;5.322;2023-07-31T04:05:13;17.50;99.90
21216;DHT22;10765;50.954;5.322;2023-07-31T04:07:42;17.40;99.90
21216;DHT22;10765;50.954;5.322;2023-07-31T04:10:09;17.40;99.90
21216;DHT22;10765;50.954;5.322;2023-07-31T04:12:36;17.50;99.90
21216;DHT22;10765;50.954;5.322;2023-07-31T04:15:03;17.50;99.90
21216;DHT22;10765;50.954;5.322;2023-07-31T04:17:32;17.50;99.90
21216;DHT22;10765;50.954;5.322;2023-07-31T04:19:59;17.40;99.90
21216;DHT22;10765;50.954;5.322;2023-07-31T04:22:26;17.40;99.90
21216;DHT22;10765;50.954;5.322;2023-07-31T04:24:52;17.50;99.90
21216;DHT22;10765;50.954;5.322;2023-07-31T04:27:19;17.50;99.90
21216;DHT22;10765;50.954;5.322;2023-07-31T04:29:46;17.50;99.90
21216;DHT22;10765;50.954;5.322;2023-07-31T04:32:13;17.50;99.90
21216;DHT22;10765;50.954;5.322;2023-07-31T04:34:43;17.50;99.90
21216;DHT22;10765;50.954;5.322;2023-07-31T04:37:10;17.50;99.90
21216;DHT22;10765;50.954;5.322;2023-07-31T04:39:37;17.40;99.90
21216;DHT22;10765;50.954;5.322;2023-07-31T04:42:04;17.40;99.90
21216;DHT22;10765;50.954;5.322;2023-07-31T04:44:31;17.20;99.90
21216;DHT22;10765;50.954;5.322;2023-07-31T04:46:58;17.00;99.90
21216;DHT22;10765;50.954;5.322;2023-07-31T04:49:25;16.80;99.90
21216;DHT22;10765;50.954;5.322;2023-07-31T04:51:53;16.80;99.90
21216;DHT22;10765;50.954;5.322;2023-07-31T04:54:20;16.80;99.90
21216;DHT22;10765;50.954;5.322;2023-07-31T04:56:47;16.70;99.90
21216;DHT22;10765;50.954;5.322;2023-07-31T04:59:14;16.70;99.90
21216;DHT22;10765;50.954;5.322;2023-07-31T05:01:40;16.60;99.90
21216;DHT22;10765;50.954;5.322;2023-07-31T05:04:08;16.60;99.90
21216;DHT22;10765;50.954;5.322;2023-07-31T05:06:35;16.60;99.90
21216;DHT22;10765;50.954;5.322;2023-07-31T05:09:03;16.60;99.90
21216;DHT22;10765;50.954;5.322;2023-07-31T05:11:30;16.60;99.90
21216;DHT22;10765;50.954;5.322;2023-07-31T05:13:57;16.70;99.90
21216;DHT22;10765;50.954;5.322;2023-07-31T05:16:24;16.70;99.90
21216;DHT22;10765;50.954;5.322;2023-07-31T05:18:50;16.70;99.90
21216;DHT22;10765;50.954;5.322;2023-07-31T05:21:17;16.70;99.90
21216;DHT22;10765;50.954;5.322;2023-07-31T05:23:44;16.70;99.90
21216;DHT22;10765;50.954;5.322;2023-07-31T05:26:14;16.80;99.90
21216;DHT22;10765;50.954;5.322;2023-07-31T05:28:41;16.70;99.90
21216;DHT22;10765;50.954;5.322;2023-07-31T05:31:08;16.70;99.90
21216;DHT22;10765;50.954;5.322;2023-07-31T05:33:35;16.60;99.90
21216;DHT22;10765;50.954;5.322;2023-07-31T05:36:02;16.70;99.90
21216;DHT22;10765;50.954;5.322;2023-07-31T05:38:29;16.70;99.90
21216;DHT22;10765;50.954;5.322;2023-07-31T05:40:59;16.80;99.90
21216;DHT22;10765;50.954;5.322;2023-07-31T05:43:27;16.70;99.90
21216;DHT22;10765;50.954;5.322;2023-07-31T05:45:57;16.70;99.90
21216;DHT22;10765;50.954;5.322;2023-07-31T05:48:24;16.70;99.90
21216;DHT22;10765;50.954;5.322;2023-07-31T05:50:51;16.70;99.90
21216;DHT22;10765;50.954;5.322;2023-07-31T05:53:18;16.70;99.90
21216;DHT22;10765;50.954;5.322;2023-07-31T05:55:45;16.60;99.90
21216;DHT22;10765;50.954;5.322;2023-07-31T05:58:12;16.50;99.90
21216;DHT22;10765;50.954;5.322;2023-07-31T06:00:40;16.70;99.90
21216;DHT22;10765;50.954;5.322;2023-07-31T06:03:07;16.70;99.90
21216;DHT22;10765;50.954;5.322;2023-07-31T06:05:36;16.70;99.90
21216;DHT22;10765;50.954;5.322;2023-07-31T06:08:06;16.70;99.90
21216;DHT22;10765;50.954;5.322;2023-07-31T06:10:33;16.60;99.90
21216;DHT22;10765;50.954;5.322;2023-07-31T06:13:00;16.60;99.90
21216;DHT22;10765;50.954;5.322;2023-07-31T06:15:27;16.60;99.90
21216;DHT22;10765;50.954;5.322;2023-07-31T06:17:55;16.50;99.90
21216;DHT22;10765;50.954;5.322;2023-07-31T06:20:23;16.60;99.90
21216;DHT22;10765;50.954;5.322;2023-07-31T06:22:50;16.50;99.90
21216;DHT22;10765;50.954;5.322;2023-07-31T06:25:17;16.40;99.90
21216;DHT22;10765;50.954;5.322;2023-07-31T06:27:43;16.30;99.90
21216;DHT22;10765;50.954;5.322;2023-07-31T06:30:11;16.20;99.90
21216;DHT22;10765;50.954;5.322;2023-07-31T06:32:38;16.20;99.90
21216;DHT22;10765;50.954;5.322;2023-07-31T06:35:07;16.20;99.90
21216;DHT22;10765;50.954;5.322;2023-07-31T06:37:34;16.40;99.90
21216;DHT22;10765;50.954;5.322;2023-07-31T06:40:01;16.30;99.90
21216;DHT22;10765;50.954;5.322;2023-07-31T06:42:30;16.40;99.90
21216;DHT22;10765;50.954;5.322;2023-07-31T06:44:57;16.40;99.90
21216;DHT22;10765;50.954;5.322;2023-07-31T06:47:24;16.40;99.90
21216;DHT22;10765;50.954;5.322;2023-07-31T06:49:51;16.50;99.90
21216;DHT22;10765;50.954;5.322;2023-07-31T06:52:20;16.50;99.90
21216;DHT22;10765;50.954;5.322;2023-07-31T06:55:00;16.50;99.90
21216;DHT22;10765;50.954;5.322;2023-07-31T06:57:28;16.50;99.90
21216;DHT22;10765;50.954;5.322;2023-07-31T06:59:55;16.60;99.90
21216;DHT22;10765;50.954;5.322;2023-07-31T07:02:22;16.60;99.90
21216;DHT22;10765;50.954;5.322;2023-07-31T07:04:49;16.70;99.90
21216;DHT22;10765;50.954;5.322;2023-07-31T07:07:17;16.80;99.90
21216;DHT22;10765;50.954;5.322;2023-07-31T07:09:45;16.70;99.90
21216;DHT22;10765;50.954;5.322;2023-07-31T07:12:12;16.90;99.90
21216;DHT22;10765;50.954;5.322;2023-07-31T07:14:39;16.90;99.90
21216;DHT22;10765;50.954;5.322;2023-07-31T07:17:06;16.90;99.90
21216;DHT22;10765;50.954;5.322;2023-07-31T07:19:33;16.90;99.90
21216;DHT22;10765;50.954;5.322;2023-07-31T07:21:59;16.80;99.90
21216;DHT22;10765;50.954;5.322;2023-07-31T07:24:27;16.90;99.90
21216;DHT22;10765;50.954;5.322;2023-07-31T07:26:56;17.10;99.90
21216;DHT22;10765;50.954;5.322;2023-07-31T07:29:22;17.20;99.90
21216;DHT22;10765;50.954;5.322;2023-07-31T07:31:52;17.20;99.90
21216;DHT22;10765;50.954;5.322;2023-07-31T07:34:19;17.40;99.90
21216;DHT22;10765;50.954;5.322;2023-07-31T07:36:46;17.50;99.90
21216;DHT22;10765;50.954;5.322;2023-07-31T07:39:12;17.50;99.90
21216;DHT22;10765;50.954;5.322;2023-07-31T07:41:39;17.30;99.90
21216;DHT22;10765;50.954;5.322;2023-07-31T07:44:08;16.90;99.90
21216;DHT22;10765;50.954;5.322;2023-07-31T07:46:35;17.00;99.90
21216;DHT22;10765;50.954;5.322;2023-07-31T07:49:01;17.10;99.90
21216;DHT22;10765;50.954;5.322;2023-07-31T07:51:28;17.00;99.90
21216;DHT22;10765;50.954;5.322;2023-07-31T07:53:57;17.00;99.90
21216;DHT22;10765;50.954;5.322;2023-07-31T07:56:25;17.00;99.90
21216;DHT22;10765;50.954;5.322;2023-07-31T07:58:52;17.00;99.90
21216;DHT22;10765;50.954;5.322;2023-07-31T08:01:20;17.10;99.90
21216;DHT22;10765;50.954;5.322;2023-07-31T08:03:48;17.20;99.90
21216;DHT22;10765;50.954;5.322;2023-07-31T08:06:15;17.20;99.90
21216;DHT22;10765;50.954;5.322;2023-07-31T08:08:41;17.20;99.90
21216;DHT22;10765;50.954;5.322;2023-07-31T08:11:08;17.10;99.90
21216;DHT22;10765;50.954;5.322;2023-07-31T08:13:35;17.20;99.90
21216;DHT22;10765;50.954;5.322;2023-07-31T08:16:03;17.00;99.90
21216;DHT22;10765;50.954;5.322;2023-07-31T08:18:32;17.10;99.90
21216;DHT22;10765;50.954;5.322;2023-07-31T08:21:02;17.20;99.90
21216;DHT22;10765;50.954;5.322;2023-07-31T08:23:29;17.20;99.90
21216;DHT22;10765;50.954;5.322;2023-07-31T08:25:56;17.30;99.90
21216;DHT22;10765;50.954;5.322;2023-07-31T08:28:23;17.20;99.90
21216;DHT22;10765;50.954;5.322;2023-07-31T08:30:50;17.20;99.90
21216;DHT22;10765;50.954;5.322;2023-07-31T08:33:17;17.20;99.90
21216;DHT22;10765;50.954;5.322;2023-07-31T08:35:45;17.10;99.90
21216;DHT22;10765;50.954;5.322;2023-07-31T08:38:12;17.10;99.90
21216;DHT22;10765;50.954;5.322;2023-07-31T08:40:39;17.20;99.90
21216;DHT22;10765;50.954;5.322;2023-07-31T08:43:06;17.20;99.90
21216;DHT22;10765;50.954;5.322;2023-07-31T08:45:34;17.30;99.90
21216;DHT22;10765;50.954;5.322;2023-07-31T08:48:01;17.40;99.90
21216;DHT22;10765;50.954;5.322;2023-07-31T08:50:28;17.60;99.90
21216;DHT22;10765;50.954;5.322;2023-07-31T08:52:56;17.70;99.90
21216;DHT22;10765;50.954;5.322;2023-07-31T08:55:23;17.90;99.90
21216;DHT22;10765;50.954;5.322;2023-07-31T08:57:51;17.80;99.90
21216;DHT22;10765;50.954;5.322;2023-07-31T09:00:19;17.60;99.90
21216;DHT22;10765;50.954;5.322;2023-07-31T09:02:56;17.60;99.90
21216;DHT22;10765;50.954;5.322;2023-07-31T09:05:26;17.70;99.90
21216;DHT22;10765;50.954;5.322;2023-07-31T09:07:56;18.00;99.90
21216;DHT22;10765;50.954;5.322;2023-07-31T09:10:23;18.30;99.90
21216;DHT22;10765;50.954;5.322;2023-07-31T09:12:51;18.40;99.90
21216;DHT22;10765;50.954;5.322;2023-07-31T09:15:19;18.40;99.90
21216;DHT22;10765;50.954;5.322;2023-07-31T09:17:46;18.40;99.90
21216;DHT22;10765;50.954;5.322;2023-07-31T09:20:14;18.30;99.90
21216;DHT22;10765;50.954;5.322;2023-07-31T09:22:42;18.60;99.90
21216;DHT22;10765;50.954;5.322;2023-07-31T09:25:17;18.60;99.90
21216;DHT22;10765;50.954;5.322;2023-07-31T09:27:49;18.50;99.90
21216;DHT22;10765;50.954;5.322;2023-07-31T09:30:16;18.10;99.90
21216;DHT22;10765;50.954;5.322;2023-07-31T09:32:44;17.80;99.90
21216;DHT22;10765;50.954;5.322;2023-07-31T09:35:18;17.90;99.90
21216;DHT22;10765;50.954;5.322;2023-07-31T09:37:49;17.80;99.90
21216;DHT22;10765;50.954;5.322;2023-07-31T09:40:27;17.70;99.90
21216;DHT22;10765;50.954;5.322;2023-07-31T09:42:56;17.80;99.90
21216;DHT22;10765;50.954;5.322;2023-07-31T09:45:24;18.00;99.90
21216;DHT22;10765;50.954;5.322;2023-07-31T09:47:51;18.30;99.90
21216;DHT22;10765;50.954;5.322;2023-07-31T09:50:20;18.40;99.90
21216;DHT22;10765;50.954;5.322;2023-07-31T09:52:47;18.60;99.90
21216;DHT22;10765;50.954;5.322;2023-07-31T09:55:14;18.80;99.90
21216;DHT22;10765;50.954;5.322;2023-07-31T09:57:44;19.10;99.90
21216;DHT22;10765;50.954;5.322;2023-07-31T10:00:12;19.40;99.90
21216;DHT22;10765;50.954;5.322;2023-07-31T10:02:39;19.50;98.60
21216;DHT22;10765;50.954;5.322;2023-07-31T10:05:07;19.30;1.00
21216;DHT22;10765;50.954;5.322;2023-07-31T10:07:37;19.20;99.90
21216;DHT22;10765;50.954;5.322;2023-07-31T10:10:07;19.00;99.90
21216;DHT22;10765;50.954;5.322;2023-07-31T10:12:35;19.00;1.00
21216;DHT22;10765;50.954;5.322;2023-07-31T10:15:05;19.00;99.90
21216;DHT22;10765;50.954;5.322;2023-07-31T10:17:33;19.00;1.00
21216;DHT22;10765;50.954;5.322;2023-07-31T10:20:02;19.00;99.90
21216;DHT22;10765;50.954;5.322;2023-07-31T10:22:30;19.20;1.00
21216;DHT22;10765;50.954;5.322;2023-07-31T10:24:58;19.20;1.00
21216;DHT22;10765;50.954;5.322;2023-07-31T10:27:26;19.20;99.90
21216;DHT22;10765;50.954;5.322;2023-07-31T10:29:55;19.40;99.90
21216;DHT22;10765;50.954;5.322;2023-07-31T10:32:24;19.50;1.00
21216;DHT22;10765;50.954;5.322;2023-07-31T10:34:51;19.90;99.90
21216;DHT22;10765;50.954;5.322;2023-07-31T10:37:25;19.90;99.90
21216;DHT22;10765;50.954;5.322;2023-07-31T10:39:57;19.90;99.90
21216;DHT22;10765;50.954;5.322;2023-07-31T10:42:32;19.90;93.20
21216;DHT22;10765;50.954;5.322;2023-07-31T10:45:01;19.80;1.00
21216;DHT22;10765;50.954;5.322;2023-07-31T10:47:30;20.10;1.00
21216;DHT22;10765;50.954;5.322;2023-07-31T10:50:12;20.80;1.00
21216;DHT22;10765;50.954;5.322;2023-07-31T10:52:39;20.90;1.00
21216;DHT22;10765;50.954;5.322;2023-07-31T10:55:30;21.20;99.90
21216;DHT22;10765;50.954;5.322;2023-07-31T10:58:04;21.00;99.90
21216;DHT22;10765;50.954;5.322;2023-07-31T11:00:32;21.10;99.90
21216;DHT22;10765;50.954;5.322;2023-07-31T11:03:02;20.70;99.90
21216;DHT22;10765;50.954;5.322;2023-07-31T11:05:45;20.50;99.90
21216;DHT22;10765;50.954;5.322;2023-07-31T11:08:14;20.40;44.00
21216;DHT22;10765;50.954;5.322;2023-07-31T11:10:41;20.10;99.90
21216;DHT22;10765;50.954;5.322;2023-07-31T11:13:08;20.30;99.90
21216;DHT22;10765;50.954;5.322;2023-07-31T11:15:35;20.40;1.00
21216;DHT22;10765;50.954;5.322;2023-07-31T11:18:04;20.70;1.00
21216;DHT22;10765;50.954;5.322;2023-07-31T11:20:31;20.80;99.90
21216;DHT22;10765;50.954;5.322;2023-07-31T11:23:00;20.90;99.90
21216;DHT22;10765;50.954;5.322;2023-07-31T11:25:29;21.10;99.90
21216;DHT22;10765;50.954;5.322;2023-07-31T11:27:57;20.70;99.90
21216;DHT22;10765;50.954;5.322;2023-07-31T11:30:24;20.80;99.90
21216;DHT22;10765;50.954;5.322;2023-07-31T11:32:50;21.20;99.90
21216;DHT22;10765;50.954;5.322;2023-07-31T11:35:19;21.40;99.90
21216;DHT22;10765;50.954;5.322;2023-07-31T11:37:46;21.40;99.90
21216;DHT22;10765;50.954;5.322;2023-07-31T11:40:14;21.40;99.90
21216;DHT22;10765;50.954;5.322;2023-07-31T11:42:41;21.40;41.00
21216;DHT22;10765;50.954;5.322;2023-07-31T11:45:09;21.30;31.00
21216;DHT22;10765;50.954;5.322;2023-07-31T11:47:37;21.60;37.30
21216;DHT22;10765;50.954;5.322;2023-07-31T11:50:05;22.10;1.00
21216;DHT22;10765;50.954;5.322;2023-07-31T11:52:37;22.50;1.00
21216;DHT22;10765;50.954;5.322;2023-07-31T11:55:08;23.00;1.00
21216;DHT22;10765;50.954;5.322;2023-07-31T11:57:36;24.20;1.00
21216;DHT22;10765;50.954;5.322;2023-07-31T12:00:04;24.30;1.00
21216;DHT22;10765;50.954;5.322;2023-07-31T12:02:32;23.90;1.00
21216;DHT22;10765;50.954;5.322;2023-07-31T12:04:59;23.50;1.00
21216;DHT22;10765;50.954;5.322;2023-07-31T12:07:26;22.90;1.00
21216;DHT22;10765;50.954;5.322;2023-07-31T12:09:55;22.70;1.00
21216;DHT22;10765;50.954;5.322;2023-07-31T12:12:23;22.60;1.00
21216;DHT22;10765;50.954;5.322;2023-07-31T12:14:50;22.40;1.00
21216;DHT22;10765;50.954;5.322;2023-07-31T12:17:18;21.90;1.00
21216;DHT22;10765;50.954;5.322;2023-07-31T12:19:45;21.70;1.00
21216;DHT22;10765;50.954;5.322;2023-07-31T12:22:13;21.40;1.00
21216;DHT22;10765;50.954;5.322;2023-07-31T12:24:41;21.10;1.00
21216;DHT22;10765;50.954;5.322;2023-07-31T12:27:12;20.90;90.50
21216;DHT22;10765;50.954;5.322;2023-07-31T12:29:42;20.90;66.70
21216;DHT22;10765;50.954;5.322;2023-07-31T12:32:22;21.10;73.40
21216;DHT22;10765;50.954;5.322;2023-07-31T12:34:50;21.80;1.00
21216;DHT22;10765;50.954;5.322;2023-07-31T12:37:17;22.30;1.00
21216;DHT22;10765;50.954;5.322;2023-07-31T12:39:46;23.50;1.00
21216;DHT22;10765;50.954;5.322;2023-07-31T12:42:14;25.30;1.00
21216;DHT22;10765;50.954;5.322;2023-07-31T12:44:43;26.20;1.00
21216;DHT22;10765;50.954;5.322;2023-07-31T12:47:10;25.60;1.00
21216;DHT22;10765;50.954;5.322;2023-07-31T12:49:37;24.70;1.00
21216;DHT22;10765;50.954;5.322;2023-07-31T12:52:04;23.70;1.00
21216;DHT22;10765;50.954;5.322;2023-07-31T12:54:31;23.10;1.00
21216;DHT22;10765;50.954;5.322;2023-07-31T12:56:58;22.70;1.00
21216;DHT22;10765;50.954;5.322;2023-07-31T12:59:26;22.50;1.00
21216;DHT22;10765;50.954;5.322;2023-07-31T13:01:53;22.30;1.00
21216;DHT22;10765;50.954;5.322;2023-07-31T13:04:20;22.10;1.00
21216;DHT22;10765;50.954;5.322;2023-07-31T13:06:47;21.80;1.00
21216;DHT22;10765;50.954;5.322;2023-07-31T13:09:14;21.50;1.00
21216;DHT22;10765;50.954;5.322;2023-07-31T13:11:43;21.40;1.00
21216;DHT22;10765;50.954;5.322;2023-07-31T13:14:09;21.30;1.00
21216;DHT22;10765;50.954;5.322;2023-07-31T13:16:39;21.20;1.00
21216;DHT22;10765;50.954;5.322;2023-07-31T13:19:06;21.20;1.00
21216;DHT22;10765;50.954;5.322;2023-07-31T13:21:32;21.20;1.00
21216;DHT22;10765;50.954;5.322;2023-07-31T13:26:30;21.20;1.00
21216;DHT22;10765;50.954;5.322;2023-07-31T13:28:56;21.10;1.00
21216;DHT22;10765;50.954;5.322;2023-07-31T13:31:23;21.10;54.70
21216;DHT22;10765;50.954;5.322;2023-07-31T13:33:52;20.90;88.70
21216;DHT22;10765;50.954;5.322;2023-07-31T13:36:18;20.90;99.90
21216;DHT22;10765;50.954;5.322;2023-07-31T13:38:45;20.90;91.10
21216;DHT22;10765;50.954;5.322;2023-07-31T13:41:12;20.90;99.90
21216;DHT22;10765;50.954;5.322;2023-07-31T13:43:39;21.00;99.90
21216;DHT22;10765;50.954;5.322;2023-07-31T13:46:06;20.90;1.00
21216;DHT22;10765;50.954;5.322;2023-07-31T13:48:36;21.00;53.20
21216;DHT22;10765;50.954;5.322;2023-07-31T13:51:04;21.20;25.60
21216;DHT22;10765;50.954;5.322;2023-07-31T13:53:31;21.30;1.00
21216;DHT22;10765;50.954;5.322;2023-07-31T13:55:58;21.30;1.00
21216;DHT22;10765;50.954;5.322;2023-07-31T13:58:25;21.30;1.00
21216;DHT22;10765;50.954;5.322;2023-07-31T14:00:52;21.30;1.00
21216;DHT22;10765;50.954;5.322;2023-07-31T14:03:19;21.10;1.00
21216;DHT22;10765;50.954;5.322;2023-07-31T14:05:45;21.00;2.10
21216;DHT22;10765;50.954;5.322;2023-07-31T14:08:14;20.80;99.90
21216;DHT22;10765;50.954;5.322;2023-07-31T14:10:41;20.70;99.90
21216;DHT22;10765;50.954;5.322;2023-07-31T14:13:07;20.60;99.90
21216;DHT22;10765;50.954;5.322;2023-07-31T14:15:34;20.60;99.90
21216;DHT22;10765;50.954;5.322;2023-07-31T14:18:02;20.50;99.90
21216;DHT22;10765;50.954;5.322;2023-07-31T14:20:30;20.50;99.90
21216;DHT22;10765;50.954;5.322;2023-07-31T14:22:57;20.40;99.90
21216;DHT22;10765;50.954;5.322;2023-07-31T14:25:25;20.30;99.90
21216;DHT22;10765;50.954;5.322;2023-07-31T14:27:52;20.10;1.00
21216;DHT22;10765;50.954;5.322;2023-07-31T14:30:19;19.30;1.00
21216;DHT22;10765;50.954;5.322;2023-07-31T14:32:46;18.90;99.90
21216;DHT22;10765;50.954;5.322;2023-07-31T14:35:13;18.60;1.00
21216;DHT22;10765;50.954;5.322;2023-07-31T14:37:42;18.40;12.90
21216;DHT22;10765;50.954;5.322;2023-07-31T14:40:10;18.40;1.00
21216;DHT22;10765;50.954;5.322;2023-07-31T14:42:39;18.30;1.00
21216;DHT22;10765;50.954;5.322;2023-07-31T14:45:07;18.30;1.00
21216;DHT22;10765;50.954;5.322;2023-07-31T14:47:35;18.50;99.90
21216;DHT22;10765;50.954;5.322;2023-07-31T14:50:03;18.70;1.00
21216;DHT22;10765;50.954;5.322;2023-07-31T14:52:30;18.60;86.20
21216;DHT22;10765;50.954;5.322;2023-07-31T14:54:57;18.60;1.00
21216;DHT22;10765;50.954;5.322;2023-07-31T14:57:24;18.60;99.90
21216;DHT22;10765;50.954;5.322;2023-07-31T14:59:52;18.60;99.90
21216;DHT22;10765;50.954;5.322;2023-07-31T15:02:19;18.60;99.90
21216;DHT22;10765;50.954;5.322;2023-07-31T15:04:46;18.60;99.90
21216;DHT22;10765;50.954;5.322;2023-07-31T15:07:13;18.60;99.90
21216;DHT22;10765;50.954;5.322;2023-07-31T15:09:40;18.40;1.00
21216;DHT22;10765;50.954;5.322;2023-07-31T15:12:08;18.20;1.00
21216;DHT22;10765;50.954;5.322;2023-07-31T15:14:35;18.20;60.20
21216;DHT22;10765;50.954;5.322;2023-07-31T15:17:03;18.00;72.90
21216;DHT22;10765;50.954;5.322;2023-07-31T15:19:30;18.20;99.90
21216;DHT22;10765;50.954;5.322;2023-07-31T15:22:00;18.20;99.90
21216;DHT22;10765;50.954;5.322;2023-07-31T15:24:27;18.30;99.90
21216;DHT22;10765;50.954;5.322;2023-07-31T15:26:54;18.30;99.90
21216;DHT22;10765;50.954;5.322;2023-07-31T15:29:21;18.20;99.90
21216;DHT22;10765;50.954;5.322;2023-07-31T15:31:48;18.10;99.90
21216;DHT22;10765;50.954;5.322;2023-07-31T15:34:17;18.10;99.90
21216;DHT22;10765;50.954;5.322;2023-07-31T15:36:44;18.20;99.90
21216;DHT22;10765;50.954;5.322;2023-07-31T15:39:11;18.10;99.90